Time;durP1;ratioP1;P1;durP2;ratioP2;P2;SDS_P1;SDS_P2;PMS_P1;PMS_P2;Temp;Humidity;BMP_temperature;BMP_pressure;BME280_temperature;BME280_humidity;BME280_pressure;Samples;Min_cycle;Max_cycle;Signal;HPM_P1;HPM_P2
2022/09/22 00:01:19;;;;;;;;;;;16.30;99.90;;;;;;5071909;28;19908;-73
2022/09/22 00:03:47;;;;;;;;;;;16.30;99.90;;;;;;5072789;28;19914;-73
2022/09/22 00:06:15;;;;;;;;;;;16.30;99.90;;;;;;5072291;28;19909;-75
2022/09/22 00:08:42;;;;;;;;;;;16.30;99.90;;;;;;5072604;28;19908;-74
2022/09/22 00:11:12;;;;;;;;;;;16.30;99.90;;;;;;5072301;28;19963;-74
2022/09/22 00:13:39;;;;;;;;;;;16.30;99.90;;;;;;5072921;28;19915;-74
2022/09/22 00:16:06;;;;;;;;;;;16.40;99.90;;;;;;5072422;28;19917;-73
2022/09/22 00:18:33;;;;;;;;;;;16.30;99.90;;;;;;5072142;28;19924;-74
2022/09/22 00:21:04;;;;;;;;;;;16.30;99.90;;;;;;5072243;28;19935;-73
2022/09/22 00:23:31;;;;;;;;;;;16.40;99.90;;;;;;5071954;28;19916;-74
2022/09/22 00:25:58;;;;;;;;;;;16.40;99.90;;;;;;5072294;28;20409;-74
2022/09/22 00:28:25;;;;;;;;;;;16.30;99.90;;;;;;5071880;28;19939;-75
2022/09/22 00:30:50;;;;;;;;;;;16.30;99.90;;;;;;5076422;28;19999;-74
2022/09/22 00:33:16;;;;;;;;;;;16.40;99.90;;;;;;5075880;28;20413;-74
2022/09/22 00:35:42;;;;;;;;;;;16.40;99.90;;;;;;5076245;28;19944;-74
2022/09/22 00:38:07;;;;;;;;;;;16.40;99.90;;;;;;5076277;28;19916;-74
2022/09/22 00:40:34;;;;;;;;;;;16.40;99.90;;;;;;5075754;28;20366;-74
2022/09/22 00:43:16;;;;;;;;;;;16.30;99.90;;;;;;5076284;28;19938;-74
2022/09/22 00:45:42;;;;;;;;;;;16.40;99.90;;;;;;5076206;28;19991;-75
2022/09/22 00:48:08;;;;;;;;;;;16.40;99.90;;;;;;5076428;28;20411;-74
2022/09/22 00:50:34;;;;;;;;;;;16.40;99.90;;;;;;5075732;28;19997;-75
2022/09/22 00:53:03;;;;;;;;;;;16.40;99.90;;;;;;5075580;28;19919;-73
2022/09/22 00:55:32;;;;;;;;;;;16.40;99.90;;;;;;5075347;28;19916;-74
2022/09/22 00:57:58;;;;;;;;;;;16.40;99.90;;;;;;5075885;28;19916;-74
2022/09/22 01:00:24;;;;;;;;;;;16.40;99.90;;;;;;5075198;28;19916;-73
2022/09/22 01:02:52;;;;;;;;;;;16.40;99.90;;;;;;5075976;28;19909;-74
2022/09/22 01:05:19;;;;;;;;;;;16.40;99.90;;;;;;5074915;28;19909;-74
2022/09/22 01:07:45;;;;;;;;;;;16.40;99.90;;;;;;5075609;28;19908;-73
2022/09/22 01:10:10;;;;;;;;;;;16.40;99.90;;;;;;5075300;28;20254;-74
2022/09/22 01:12:38;;;;;;;;;;;16.40;99.90;;;;;;5075415;28;19922;-74
2022/09/22 01:15:22;;;;;;;;;;;16.40;99.90;;;;;;5075444;28;19908;-73
2022/09/22 01:18:04;;;;;;;;;;;16.40;99.90;;;;;;5075741;28;19916;-74
2022/09/22 01:20:39;;;;;;;;;;;16.40;99.90;;;;;;5075373;28;19909;-75
2022/09/22 01:23:05;;;;;;;;;;;16.40;99.90;;;;;;5075405;28;19909;-73
2022/09/22 01:25:42;;;;;;;;;;;16.50;99.90;;;;;;5074660;28;19915;-74
2022/09/22 01:28:26;;;;;;;;;;;16.50;99.90;;;;;;5075296;28;19963;-73
2022/09/22 01:31:04;;;;;;;;;;;16.50;99.90;;;;;;5075350;28;20262;-74
2022/09/22 01:33:48;;;;;;;;;;;16.50;99.90;;;;;;5073526;28;19912;-74
2022/09/22 01:36:20;;;;;;;;;;;16.40;99.90;;;;;;5075112;28;20340;-74
2022/09/22 01:38:54;;;;;;;;;;;16.50;99.90;;;;;;5075129;28;19917;-74
2022/09/22 01:41:39;;;;;;;;;;;16.50;99.90;;;;;;5073780;28;19962;-74
2022/09/22 01:44:07;;;;;;;;;;;16.50;99.90;;;;;;5075170;28;19944;-74
2022/09/22 01:46:36;;;;;;;;;;;16.40;99.90;;;;;;5074204;28;19930;-74
2022/09/22 01:49:05;;;;;;;;;;;16.50;99.90;;;;;;5074481;28;20449;-73
2022/09/22 01:51:38;;;;;;;;;;;16.50;99.90;;;;;;5074301;28;19916;-74
2022/09/22 01:54:10;;;;;;;;;;;16.50;99.90;;;;;;5074629;28;19962;-74
2022/09/22 01:56:36;;;;;;;;;;;16.40;99.90;;;;;;5074383;28;20397;-73
2022/09/22 01:59:03;;;;;;;;;;;16.40;99.90;;;;;;5074735;28;19924;-74
2022/09/22 02:01:34;;;;;;;;;;;16.40;99.90;;;;;;5074031;28;20251;-74
2022/09/22 02:04:08;;;;;;;;;;;16.40;99.90;;;;;;5074900;28;19991;-74
2022/09/22 02:06:46;;;;;;;;;;;16.40;99.90;;;;;;5073953;28;20640;-74
2022/09/22 02:09:15;;;;;;;;;;;16.30;99.90;;;;;;5074451;28;19908;-74
2022/09/22 02:11:41;;;;;;;;;;;16.40;99.90;;;;;;5074667;28;19916;-75
2022/09/22 02:14:07;;;;;;;;;;;16.30;99.90;;;;;;5074370;28;19908;-75
2022/09/22 02:16:33;;;;;;;;;;;16.40;99.90;;;;;;5072830;28;19995;-75
2022/09/22 02:19:09;;;;;;;;;;;16.30;99.90;;;;;;5074492;28;19920;-75
2022/09/22 02:21:34;;;;;;;;;;;16.30;99.90;;;;;;5073597;28;19946;-75
2022/09/22 02:24:00;;;;;;;;;;;16.20;99.90;;;;;;5074221;28;19908;-76
2022/09/22 02:26:27;;;;;;;;;;;16.20;99.90;;;;;;5073774;28;19916;-79
2022/09/22 02:28:59;;;;;;;;;;;16.10;99.90;;;;;;5074039;28;19909;-78
2022/09/22 02:31:27;;;;;;;;;;;16.10;99.90;;;;;;5073839;28;19909;-79
2022/09/22 02:33:53;;;;;;;;;;;16.10;99.90;;;;;;5074081;28;19908;-77
2022/09/22 02:36:37;;;;;;;;;;;16.00;99.90;;;;;;5073364;28;19917;-76
2022/09/22 02:39:11;;;;;;;;;;;16.00;99.90;;;;;;5073984;28;19964;-77
2022/09/22 02:41:55;;;;;;;;;;;16.00;99.90;;;;;;5073491;28;19917;-77
2022/09/22 02:44:29;;;;;;;;;;;16.00;99.90;;;;;;5073127;28;20062;-76
2022/09/22 02:47:01;;;;;;;;;;;15.90;99.90;;;;;;5073590;28;19920;-76
2022/09/22 02:49:27;;;;;;;;;;;15.90;99.90;;;;;;5073175;28;19944;-76
2022/09/22 02:51:53;;;;;;;;;;;15.90;99.90;;;;;;5073838;28;19952;-76
2022/09/22 02:54:19;;;;;;;;;;;15.90;99.90;;;;;;5073392;28;19916;-76
2022/09/22 02:56:44;;;;;;;;;;;15.90;99.90;;;;;;5055551;28;20289;-76
2022/09/22 02:59:10;;;;;;;;;;;15.90;99.90;;;;;;5073471;28;19916;-76
2022/09/22 03:01:36;;;;;;;;;;;15.90;99.90;;;;;;5073053;28;19916;-76
2022/09/22 03:04:02;;;;;;;;;;;15.80;99.90;;;;;;5073566;28;20364;-76
2022/09/22 03:06:27;;;;;;;;;;;15.80;99.90;;;;;;5072581;28;19913;-76
2022/09/22 03:08:53;;;;;;;;;;;15.80;99.90;;;;;;5073097;28;19962;-76
2022/09/22 03:11:19;;;;;;;;;;;15.80;99.90;;;;;;5073286;28;20004;-76
2022/09/22 03:13:44;;;;;;;;;;;15.80;99.90;;;;;;5073313;28;19909;-76
2022/09/22 03:16:10;;;;;;;;;;;15.80;99.90;;;;;;5073101;28;19915;-77
2022/09/22 03:18:35;;;;;;;;;;;15.80;99.90;;;;;;5072754;28;20015;-77
2022/09/22 03:21:01;;;;;;;;;;;15.80;99.90;;;;;;5072672;28;19912;-76
2022/09/22 03:23:27;;;;;;;;;;;15.80;99.90;;;;;;5072253;28;19908;-76
2022/09/22 03:25:53;;;;;;;;;;;15.80;99.90;;;;;;5073114;28;19916;-76
2022/09/22 03:28:19;;;;;;;;;;;15.80;99.90;;;;;;5072866;28;19992;-77
2022/09/22 03:30:45;;;;;;;;;;;15.70;99.90;;;;;;5071498;28;19916;-78
2022/09/22 03:33:10;;;;;;;;;;;15.70;99.90;;;;;;5072789;28;19908;-77
2022/09/22 03:35:36;;;;;;;;;;;15.70;99.90;;;;;;5071278;28;19909;-77
2022/09/22 03:38:02;;;;;;;;;;;15.70;99.90;;;;;;5071740;28;20283;-75
2022/09/22 03:40:27;;;;;;;;;;;15.80;99.90;;;;;;5072512;28;19909;-75
2022/09/22 03:42:53;;;;;;;;;;;15.80;99.90;;;;;;5073142;28;20015;-75
2022/09/22 03:45:19;;;;;;;;;;;15.70;99.90;;;;;;5072508;28;20373;-75
2022/09/22 03:47:45;;;;;;;;;;;15.80;99.90;;;;;;5072047;28;20010;-75
2022/09/22 03:50:11;;;;;;;;;;;15.80;99.90;;;;;;5073016;28;19908;-76
2022/09/22 03:52:36;;;;;;;;;;;15.80;99.90;;;;;;5072249;28;19952;-75
2022/09/22 03:55:02;;;;;;;;;;;15.80;99.90;;;;;;5072727;28;19955;-75
2022/09/22 03:57:28;;;;;;;;;;;15.80;99.90;;;;;;5071858;28;19916;-76
2022/09/22 03:59:53;;;;;;;;;;;15.80;99.90;;;;;;5072636;28;19996;-75
2022/09/22 04:02:19;;;;;;;;;;;15.90;99.90;;;;;;5072367;28;19912;-75
2022/09/22 04:04:44;;;;;;;;;;;15.80;99.90;;;;;;5077177;28;20699;-76
2022/09/22 04:07:10;;;;;;;;;;;15.80;99.90;;;;;;5079723;28;19908;-76
2022/09/22 04:09:36;;;;;;;;;;;15.80;99.90;;;;;;5079179;28;19916;-76
2022/09/22 04:12:01;;;;;;;;;;;15.80;99.90;;;;;;5079184;28;19969;-75
2022/09/22 04:14:27;;;;;;;;;;;15.80;99.90;;;;;;5078655;28;19995;-74
2022/09/22 04:16:53;;;;;;;;;;;15.80;99.90;;;;;;5079143;28;19948;-75
2022/09/22 04:19:19;;;;;;;;;;;15.80;99.90;;;;;;5079277;28;20393;-75
2022/09/22 04:21:44;;;;;;;;;;;15.80;99.90;;;;;;5078729;28;19915;-75
2022/09/22 04:24:10;;;;;;;;;;;15.80;99.90;;;;;;5079095;28;20323;-79
2022/09/22 04:26:39;;;;;;;;;;;15.80;99.90;;;;;;5077640;28;19909;-81
2022/09/22 04:29:04;;;;;;;;;;;15.70;99.90;;;;;;5079368;28;19915;-81
2022/09/22 04:31:30;;;;;;;;;;;15.80;99.90;;;;;;5078607;28;19908;-81
2022/09/22 04:33:56;;;;;;;;;;;15.70;99.90;;;;;;5077954;28;19912;-81
2022/09/22 04:36:21;;;;;;;;;;;15.70;99.90;;;;;;5079180;28;19908;-78
2022/09/22 04:38:47;;;;;;;;;;;15.70;99.90;;;;;;5078462;28;19920;-78
2022/09/22 04:41:12;;;;;;;;;;;15.70;99.90;;;;;;5079182;28;20304;-77
2022/09/22 04:43:38;;;;;;;;;;;15.70;99.90;;;;;;5078523;28;19912;-76
2022/09/22 04:46:04;;;;;;;;;;;15.70;99.90;;;;;;5079293;28;19916;-76
2022/09/22 04:48:30;;;;;;;;;;;15.70;99.90;;;;;;5078380;28;19921;-76
2022/09/22 04:50:55;;;;;;;;;;;15.70;99.90;;;;;;5079054;28;19908;-76
2022/09/22 04:53:21;;;;;;;;;;;15.70;99.90;;;;;;5079129;28;20269;-77
2022/09/22 04:55:48;;;;;;;;;;;15.70;99.90;;;;;;5078236;28;19915;-77
2022/09/22 04:58:15;;;;;;;;;;;15.70;99.90;;;;;;5077823;28;20305;-76
2022/09/22 05:00:41;;;;;;;;;;;15.70;99.90;;;;;;5078476;28;19908;-77
2022/09/22 05:03:10;;;;;;;;;;;15.70;99.90;;;;;;5078664;28;19962;-78
2022/09/22 05:05:35;;;;;;;;;;;15.70;99.90;;;;;;5077923;28;20003;-79
2022/09/22 05:08:01;;;;;;;;;;;15.70;99.90;;;;;;5078670;28;20405;-77
2022/09/22 05:10:31;;;;;;;;;;;15.70;99.90;;;;;;5078913;28;19908;-77
2022/09/22 05:12:57;;;;;;;;;;;15.70;99.90;;;;;;5078558;28;19908;-79
2022/09/22 05:15:22;;;;;;;;;;;15.70;99.90;;;;;;5076354;28;19908;-82
2022/09/22 05:17:52;;;;;;;;;;;15.70;99.90;;;;;;5074751;28;19944;-81
2022/09/22 05:20:18;;;;;;;;;;;15.70;99.90;;;;;;5075385;28;20370;-81
2022/09/22 05:22:44;;;;;;;;;;;15.60;99.90;;;;;;5074976;28;19916;-83
2022/09/22 05:25:11;;;;;;;;;;;15.60;99.90;;;;;;5073982;28;19913;-81
2022/09/22 05:27:42;;;;;;;;;;;15.60;99.90;;;;;;5074546;28;19916;-82
2022/09/22 05:30:08;;;;;;;;;;;15.60;99.90;;;;;;5075406;28;19916;-81
2022/09/22 05:32:33;;;;;;;;;;;15.60;99.90;;;;;;5073464;28;20285;-83
2022/09/22 05:34:59;;;;;;;;;;;15.60;99.90;;;;;;5074040;28;19920;-81
2022/09/22 05:37:24;;;;;;;;;;;15.60;99.90;;;;;;5075048;28;19964;-83
2022/09/22 05:39:50;;;;;;;;;;;15.60;99.90;;;;;;5073491;28;20510;-84
2022/09/22 05:42:15;;;;;;;;;;;15.60;99.90;;;;;;5073946;28;19908;-82
2022/09/22 05:44:41;;;;;;;;;;;15.60;99.90;;;;;;5074645;28;20030;-83
2022/09/22 05:47:06;;;;;;;;;;;15.60;99.90;;;;;;5073447;28;19920;-83
2022/09/22 05:49:32;;;;;;;;;;;15.60;99.90;;;;;;5073230;28;19962;-82
2022/09/22 05:51:58;;;;;;;;;;;15.60;99.90;;;;;;5074780;28;20369;-82
2022/09/22 05:54:23;;;;;;;;;;;15.60;99.90;;;;;;5074742;28;19908;-81
2022/09/22 05:56:50;;;;;;;;;;;15.60;99.90;;;;;;5074255;28;19912;-83
2022/09/22 05:59:15;;;;;;;;;;;15.60;99.90;;;;;;5073219;28;19917;-82
2022/09/22 06:01:42;;;;;;;;;;;15.60;99.90;;;;;;5074096;28;19931;-81
2022/09/22 06:04:07;;;;;;;;;;;15.60;99.90;;;;;;5073155;28;19908;-82
2022/09/22 06:06:33;;;;;;;;;;;15.60;99.90;;;;;;5074380;28;20415;-81
2022/09/22 06:08:58;;;;;;;;;;;15.60;99.90;;;;;;5074429;28;20070;-83
2022/09/22 06:11:24;;;;;;;;;;;15.60;99.90;;;;;;5074617;28;19931;-82
2022/09/22 06:13:49;;;;;;;;;;;15.60;99.90;;;;;;5073760;28;20005;-81
2022/09/22 06:16:16;;;;;;;;;;;15.60;99.90;;;;;;5074401;28;19995;-82
2022/09/22 06:18:44;;;;;;;;;;;15.60;99.90;;;;;;5072755;28;19917;-82
2022/09/22 06:21:09;;;;;;;;;;;15.60;99.90;;;;;;5074205;28;19912;-80
2022/09/22 06:23:35;;;;;;;;;;;15.60;99.90;;;;;;5073811;28;19919;-80
2022/09/22 06:26:00;;;;;;;;;;;15.60;99.90;;;;;;5074118;28;19958;-81
2022/09/22 06:28:26;;;;;;;;;;;15.60;99.90;;;;;;5072419;28;19908;-80
2022/09/22 06:30:52;;;;;;;;;;;15.60;99.90;;;;;;5073641;28;19909;-80
2022/09/22 06:33:18;;;;;;;;;;;15.60;99.90;;;;;;5073970;28;19908;-81
2022/09/22 06:35:44;;;;;;;;;;;15.60;99.90;;;;;;5073435;28;19908;-83
2022/09/22 06:38:13;;;;;;;;;;;15.60;99.90;;;;;;5073616;28;19968;-81
2022/09/22 06:40:40;;;;;;;;;;;15.60;99.90;;;;;;5073531;28;19913;-80
2022/09/22 06:43:10;;;;;;;;;;;15.60;99.90;;;;;;5073829;28;19916;-80
2022/09/22 06:45:37;;;;;;;;;;;15.70;99.90;;;;;;5073643;28;19947;-80
2022/09/22 06:48:03;;;;;;;;;;;15.70;99.90;;;;;;5073357;28;19962;-80
2022/09/22 06:50:31;;;;;;;;;;;15.70;99.90;;;;;;5073587;28;19915;-81
2022/09/22 06:52:58;;;;;;;;;;;15.70;99.90;;;;;;5073183;28;19977;-81
2022/09/22 06:55:24;;;;;;;;;;;15.70;99.90;;;;;;5073116;28;19975;-81
2022/09/22 06:57:50;;;;;;;;;;;15.70;99.90;;;;;;5072619;28;19927;-81
2022/09/22 07:00:16;;;;;;;;;;;15.70;99.90;;;;;;5074065;28;19966;-81
2022/09/22 07:02:42;;;;;;;;;;;15.70;99.90;;;;;;5071834;28;19995;-82
2022/09/22 07:05:07;;;;;;;;;;;15.70;99.90;;;;;;5072678;28;20452;-82
2022/09/22 07:07:33;;;;;;;;;;;15.70;99.90;;;;;;5073598;28;19908;-82
2022/09/22 07:09:59;;;;;;;;;;;15.70;99.90;;;;;;5073123;28;19917;-81
2022/09/22 07:12:25;;;;;;;;;;;15.70;99.90;;;;;;5073389;28;19954;-83
2022/09/22 07:14:52;;;;;;;;;;;15.70;99.90;;;;;;5072802;28;19916;-82
2022/09/22 07:17:19;;;;;;;;;;;15.80;99.90;;;;;;5073230;28;19920;-81
2022/09/22 07:19:46;;;;;;;;;;;15.70;99.90;;;;;;5072891;28;20391;-82
2022/09/22 07:22:15;;;;;;;;;;;15.80;99.90;;;;;;5073247;28;20380;-82
2022/09/22 07:24:41;;;;;;;;;;;15.80;99.90;;;;;;5072581;28;19915;-82
2022/09/22 07:27:07;;;;;;;;;;;15.80;99.90;;;;;;5071894;28;19916;-82
2022/09/22 07:29:33;;;;;;;;;;;15.80;99.90;;;;;;5073001;28;19908;-82
2022/09/22 07:31:58;;;;;;;;;;;15.80;99.90;;;;;;5073123;28;19904;-82
2022/09/22 07:34:25;;;;;;;;;;;15.80;99.90;;;;;;5073664;28;19959;-80
2022/09/22 07:36:51;;;;;;;;;;;15.70;99.90;;;;;;5071464;28;19951;-82
2022/09/22 07:39:16;;;;;;;;;;;15.70;99.90;;;;;;5070751;28;19916;-81
2022/09/22 07:41:42;;;;;;;;;;;15.60;99.90;;;;;;5072597;28;19916;-82
2022/09/22 07:46:52;;;;;;;;;;;15.50;99.90;;;;;;5072104;28;19927;-82
2022/09/22 07:49:20;;;;;;;;;;;15.50;99.90;;;;;;5071687;28;20370;-82
2022/09/22 07:51:46;;;;;;;;;;;15.40;99.90;;;;;;5072317;28;19916;-82
2022/09/22 07:54:11;;;;;;;;;;;15.30;99.90;;;;;;5071579;28;19909;-82
2022/09/22 07:56:41;;;;;;;;;;;15.20;99.90;;;;;;5072418;28;19967;-82
2022/09/22 07:59:10;;;;;;;;;;;15.20;99.90;;;;;;5072599;28;19939;-82
2022/09/22 08:01:46;;;;;;;;;;;15.10;99.90;;;;;;5071638;28;19909;-79
2022/09/22 08:04:14;;;;;;;;;;;15.10;99.90;;;;;;5072920;28;19977;-80
2022/09/22 08:06:40;;;;;;;;;;;15.00;99.90;;;;;;5072426;28;19974;-80
2022/09/22 08:09:07;;;;;;;;;;;15.10;99.90;;;;;;5072444;28;20337;-80
2022/09/22 08:11:32;;;;;;;;;;;15.10;99.90;;;;;;5072749;28;19947;-80
2022/09/22 08:14:02;;;;;;;;;;;15.00;99.90;;;;;;5070798;28;19916;-80
2022/09/22 08:16:30;;;;;;;;;;;15.00;99.90;;;;;;5072683;28;19915;-80
2022/09/22 08:18:56;;;;;;;;;;;15.10;99.90;;;;;;5071940;28;19916;-79
2022/09/22 08:21:22;;;;;;;;;;;15.00;99.90;;;;;;5072339;28;19915;-78
2022/09/22 08:23:51;;;;;;;;;;;15.00;99.90;;;;;;5059377;28;19912;-78
2022/09/22 08:26:18;;;;;;;;;;;15.00;99.90;;;;;;5052209;28;19909;-77
2022/09/22 08:28:43;;;;;;;;;;;15.00;99.90;;;;;;5051424;28;20372;-76
2022/09/22 08:31:13;;;;;;;;;;;15.00;99.90;;;;;;5052414;28;20083;-77
2022/09/22 08:33:42;;;;;;;;;;;15.00;99.90;;;;;;5052655;28;19913;-78
2022/09/22 08:36:08;;;;;;;;;;;15.00;99.90;;;;;;5051722;28;20000;-78
2022/09/22 08:38:33;;;;;;;;;;;15.00;99.90;;;;;;5052263;28;20416;-77
2022/09/22 08:41:02;;;;;;;;;;;15.10;99.90;;;;;;5051643;28;19917;-76
2022/09/22 08:43:28;;;;;;;;;;;15.00;99.90;;;;;;5052382;28;19908;-76
2022/09/22 08:45:54;;;;;;;;;;;15.00;99.90;;;;;;5051791;28;20016;-76
2022/09/22 08:51:55;;;;;;;;;;;15.00;99.90;;;;;;5082162;28;19935;-79
2022/09/22 08:53:55;;;;;;;;;;;15.10;99.90;;;;;;5054745;28;20354;-80
2022/09/22 08:56:40;;;;;;;;;;;15.10;99.90;;;;;;5056165;28;19909;-80
2022/09/22 08:59:09;;;;;;;;;;;15.10;99.90;;;;;;5055510;28;20370;-80
2022/09/22 09:01:53;;;;;;;;;;;15.10;99.90;;;;;;5055853;28;19918;-79
2022/09/22 09:04:38;;;;;;;;;;;15.20;99.90;;;;;;5056120;28;20350;-78
2022/09/22 09:07:04;;;;;;;;;;;15.20;99.90;;;;;;5055186;28;19909;-77
2022/09/22 09:09:29;;;;;;;;;;;15.30;99.90;;;;;;5055848;28;19920;-79
2022/09/22 09:12:01;;;;;;;;;;;15.30;99.90;;;;;;5054160;28;19931;-78
2022/09/22 09:14:26;;;;;;;;;;;15.30;99.90;;;;;;5073009;28;19919;-78
2022/09/22 09:16:58;;;;;;;;;;;15.30;99.90;;;;;;5075070;28;19909;-79
2022/09/22 09:19:27;;;;;;;;;;;15.30;99.90;;;;;;5074179;28;19964;-78
2022/09/22 09:21:55;;;;;;;;;;;15.30;99.90;;;;;;5075225;28;20262;-77
2022/09/22 09:24:27;;;;;;;;;;;15.20;99.90;;;;;;5071296;28;20487;-76
2022/09/22 09:26:56;;;;;;;;;;;15.20;99.90;;;;;;5074168;28;19908;-77
2022/09/22 09:29:23;;;;;;;;;;;15.30;99.90;;;;;;5074520;28;19912;-78
2022/09/22 09:31:54;;;;;;;;;;;15.30;99.90;;;;;;5074724;28;20435;-79
2022/09/22 09:34:21;;;;;;;;;;;15.40;99.90;;;;;;5073411;28;20007;-79
2022/09/22 09:36:54;;;;;;;;;;;15.40;99.90;;;;;;5074287;28;19915;-77
2022/09/22 09:39:25;;;;;;;;;;;15.30;99.90;;;;;;5073555;28;19925;-79
2022/09/22 09:41:53;;;;;;;;;;;15.30;99.90;;;;;;5074624;28;19908;-77
2022/09/22 09:44:30;;;;;;;;;;;15.30;99.90;;;;;;5074727;28;19978;-78
2022/09/22 09:47:01;;;;;;;;;;;15.30;99.90;;;;;;5073785;28;19920;-79
2022/09/22 09:49:27;;;;;;;;;;;15.30;99.90;;;;;;5074679;28;20320;-79
2022/09/22 09:51:53;;;;;;;;;;;15.30;99.90;;;;;;5072845;28;19908;-79
2022/09/22 09:54:19;;;;;;;;;;;15.30;99.90;;;;;;5074216;28;19962;-78
2022/09/22 09:57:00;;;;;;;;;;;15.30;99.90;;;;;;5074842;28;20358;-79
2022/09/22 10:02:13;;;;;;;;;;;15.30;99.90;;;;;;5073038;28;20054;-78
2022/09/22 10:04:38;;;;;;;;;;;15.30;99.90;;;;;;5074600;28;19908;-79
2022/09/22 10:07:21;;;;;;;;;;;15.30;99.90;;;;;;5073806;28;20015;-79
2022/09/22 10:09:48;;;;;;;;;;;15.30;99.90;;;;;;5074339;28;19958;-79
2022/09/22 10:12:19;;;;;;;;;;;15.30;99.90;;;;;;5074366;28;19909;-79
2022/09/22 10:14:47;;;;;;;;;;;15.20;99.90;;;;;;5074377;28;19943;-79
2022/09/22 10:17:21;;;;;;;;;;;15.20;99.90;;;;;;5073797;28;19970;-78
2022/09/22 10:19:46;;;;;;;;;;;15.20;99.90;;;;;;5074205;28;19909;-78
2022/09/22 10:22:26;;;;;;;;;;;15.30;99.90;;;;;;5072096;28;19916;-76
2022/09/22 10:25:01;;;;;;;;;;;15.30;99.90;;;;;;5073788;28;19909;-77
2022/09/22 10:27:28;;;;;;;;;;;15.30;99.90;;;;;;5074115;28;19908;-76
2022/09/22 10:30:12;;;;;;;;;;;15.40;99.90;;;;;;5073495;28;19909;-76
2022/09/22 10:32:38;;;;;;;;;;;15.40;99.90;;;;;;5074112;28;19948;-76
2022/09/22 10:35:37;;;;;;;;;;;15.40;99.90;;;;;;5072330;28;21168;-76
2022/09/22 10:38:22;;;;;;;;;;;15.50;99.90;;;;;;5055170;28;19936;-76
2022/09/22 10:40:52;;;;;;;;;;;15.60;99.90;;;;;;5070254;28;20354;-74
2022/09/22 10:43:34;;;;;;;;;;;15.70;99.90;;;;;;5083708;28;19909;-75
2022/09/22 10:46:18;;;;;;;;;;;15.70;99.90;;;;;;5079680;28;19920;-75
2022/09/22 10:48:46;;;;;;;;;;;15.70;99.90;;;;;;5093528;28;20298;-75
2022/09/22 10:51:18;;;;;;;;;;;15.70;99.90;;;;;;5084973;28;20000;-75
2022/09/22 10:53:46;;;;;;;;;;;15.70;99.90;;;;;;5074014;28;19909;-74
2022/09/22 10:56:38;;;;;;;;;;;15.70;99.90;;;;;;5077818;28;19915;-75
2022/09/22 10:59:03;;;;;;;;;;;15.70;99.90;;;;;;5071933;28;19916;-74
2022/09/22 11:01:48;;;;;;;;;;;15.70;99.90;;;;;;5085755;28;19961;-75
2022/09/22 11:04:32;;;;;;;;;;;15.70;99.90;;;;;;5075916;28;19912;-75
2022/09/22 11:13:10;;;;;;;;;;;15.90;99.90;;;;;;5081119;28;19935;-75
2022/09/22 11:15:53;;;;;;;;;;;15.80;99.90;;;;;;5093038;28;20327;-75
2022/09/22 11:18:37;;;;;;;;;;;15.90;99.90;;;;;;5092732;28;19927;-75
2022/09/22 11:21:02;;;;;;;;;;;15.90;99.90;;;;;;5083530;28;20006;-75
2022/09/22 11:23:34;;;;;;;;;;;15.90;99.90;;;;;;5072993;28;19999;-75
2022/09/22 11:26:03;;;;;;;;;;;15.90;99.90;;;;;;5072048;28;20281;-75
2022/09/22 11:28:49;;;;;;;;;;;15.90;99.90;;;;;;5072907;28;19914;-75
2022/09/22 11:31:21;;;;;;;;;;;15.90;99.90;;;;;;5072245;28;20147;-76
2022/09/22 11:33:52;;;;;;;;;;;16.00;99.90;;;;;;5072463;28;19952;-75
2022/09/22 11:36:20;;;;;;;;;;;16.00;99.90;;;;;;5072190;28;19908;-76
2022/09/22 11:39:01;;;;;;;;;;;16.00;99.90;;;;;;5072838;28;19924;-75
2022/09/22 11:41:29;;;;;;;;;;;16.00;99.90;;;;;;5072773;28;19951;-76
2022/09/22 11:44:04;;;;;;;;;;;16.00;99.90;;;;;;5072289;28;19915;-76
2022/09/22 11:46:36;;;;;;;;;;;16.00;99.90;;;;;;5072592;28;20007;-75
2022/09/22 11:49:09;;;;;;;;;;;15.90;99.90;;;;;;5071375;28;19909;-75
2022/09/22 11:51:55;;;;;;;;;;;15.90;99.90;;;;;;5071943;28;19965;-75
2022/09/22 11:54:21;;;;;;;;;;;15.80;99.90;;;;;;5072146;28;19916;-75
2022/09/22 11:57:00;;;;;;;;;;;15.80;99.90;;;;;;5071292;28;19909;-79
2022/09/22 11:59:41;;;;;;;;;;;15.70;99.90;;;;;;5072471;28;20003;-83
2022/09/22 12:02:20;;;;;;;;;;;15.50;99.90;;;;;;5070970;28;19915;-80
2022/09/22 12:04:48;;;;;;;;;;;15.30;99.90;;;;;;5105187;28;20017;-79
2022/09/22 12:07:16;;;;;;;;;;;15.20;99.90;;;;;;5071817;28;20428;-79
2022/09/22 12:09:50;;;;;;;;;;;15.20;99.90;;;;;;5072612;28;19908;-81
2022/09/22 12:12:17;;;;;;;;;;;15.00;99.90;;;;;;5072068;28;19908;-79
2022/09/22 12:14:43;;;;;;;;;;;15.10;99.90;;;;;;5072696;28;19916;-79
2022/09/22 12:17:15;;;;;;;;;;;15.00;99.90;;;;;;5071685;28;19914;-78
2022/09/22 12:19:56;;;;;;;;;;;15.00;99.90;;;;;;5072225;28;19916;-76
2022/09/22 12:22:28;;;;;;;;;;;15.10;99.90;;;;;;5071752;28;20377;-76
2022/09/22 12:24:53;;;;;;;;;;;15.00;99.90;;;;;;5073249;28;19916;-75
2022/09/22 12:27:23;;;;;;;;;;;15.00;99.90;;;;;;5075907;28;19916;-75
2022/09/22 12:29:56;;;;;;;;;;;15.10;99.90;;;;;;5076351;28;19915;-74
2022/09/22 12:32:34;;;;;;;;;;;15.10;99.90;;;;;;5075815;28;19913;-75
2022/09/22 12:35:00;;;;;;;;;;;15.10;99.90;;;;;;5076138;28;19920;-75
2022/09/22 12:37:35;;;;;;;;;;;15.10;99.90;;;;;;5075673;28;20003;-75
2022/09/22 12:40:22;;;;;;;;;;;15.10;99.90;;;;;;5075523;28;20006;-75
2022/09/22 12:42:52;;;;;;;;;;;15.10;99.90;;;;;;5075709;28;19916;-74
2022/09/22 12:45:26;;;;;;;;;;;15.10;99.90;;;;;;5075136;28;19913;-75
2022/09/22 12:47:53;;;;;;;;;;;15.20;99.90;;;;;;5075513;28;19921;-75
2022/09/22 12:50:21;;;;;;;;;;;15.20;99.90;;;;;;5075660;28;19909;-75
2022/09/22 12:52:48;;;;;;;;;;;15.20;99.90;;;;;;5075834;28;19909;-76
2022/09/22 12:55:28;;;;;;;;;;;15.20;99.90;;;;;;5075924;28;19916;-78
2022/09/22 12:57:56;;;;;;;;;;;15.10;99.90;;;;;;5075638;28;19960;-77
2022/09/22 13:00:27;;;;;;;;;;;15.20;99.90;;;;;;5075030;28;19909;-75
2022/09/22 13:02:53;;;;;;;;;;;15.20;99.90;;;;;;5075128;28;19947;-74
2022/09/22 13:05:24;;;;;;;;;;;15.30;99.90;;;;;;5074189;28;19951;-75
2022/09/22 13:07:52;;;;;;;;;;;15.40;99.90;;;;;;5075644;28;19913;-74
2022/09/22 13:10:21;;;;;;;;;;;15.40;99.90;;;;;;5074702;28;19908;-75
2022/09/22 13:13:04;;;;;;;;;;;15.40;99.90;;;;;;5075555;28;19909;-74
2022/09/22 13:15:50;;;;;;;;;;;15.40;99.90;;;;;;5075111;28;20345;-73
2022/09/22 13:18:31;;;;;;;;;;;15.40;99.90;;;;;;5074387;28;20365;-74
2022/09/22 13:20:57;;;;;;;;;;;15.40;99.90;;;;;;5075292;28;19909;-73
2022/09/22 13:23:23;;;;;;;;;;;15.40;99.90;;;;;;5074758;28;19912;-74
2022/09/22 13:25:51;;;;;;;;;;;15.40;99.90;;;;;;5075694;28;19962;-73
2022/09/22 13:28:21;;;;;;;;;;;15.40;99.90;;;;;;5073413;28;19908;-73
2022/09/22 13:31:07;;;;;;;;;;;15.50;99.90;;;;;;5075027;28;19908;-75
2022/09/22 13:33:34;;;;;;;;;;;15.50;99.90;;;;;;5074056;28;19909;-75
2022/09/22 13:36:11;;;;;;;;;;;15.50;99.90;;;;;;5073742;28;19958;-74
2022/09/22 13:38:39;;;;;;;;;;;15.60;99.90;;;;;;5080376;28;19920;-76
2022/09/22 13:41:12;;;;;;;;;;;15.70;99.90;;;;;;5076370;28;19915;-75
2022/09/22 13:43:39;;;;;;;;;;;15.80;99.90;;;;;;5088493;28;19909;-75
2022/09/22 13:46:05;;;;;;;;;;;15.90;99.90;;;;;;5091177;28;19912;-76
2022/09/22 13:48:35;;;;;;;;;;;15.90;99.90;;;;;;5079283;28;19956;-75
2022/09/22 13:51:03;;;;;;;;;;;15.80;99.90;;;;;;5085723;28;19908;-76
2022/09/22 13:53:29;;;;;;;;;;;15.90;99.90;;;;;;5087282;28;19908;-75
2022/09/22 13:55:56;;;;;;;;;;;15.70;99.90;;;;;;5078647;28;19915;-75
2022/09/22 13:58:33;;;;;;;;;;;15.80;99.90;;;;;;5090566;28;20472;-76
2022/09/22 14:00:59;;;;;;;;;;;15.80;99.90;;;;;;5082742;28;20350;-75
2022/09/22 14:03:25;;;;;;;;;;;15.70;99.90;;;;;;5081738;28;19920;-75
2022/09/22 14:05:50;;;;;;;;;;;15.70;99.90;;;;;;5089835;28;19940;-73
2022/09/22 14:08:26;;;;;;;;;;;15.70;99.90;;;;;;5077212;28;19916;-74
2022/09/22 14:10:52;;;;;;;;;;;15.60;99.90;;;;;;5087023;28;19915;-75
2022/09/22 14:13:36;;;;;;;;;;;15.60;99.90;;;;;;5076784;28;20007;-75
2022/09/22 14:16:06;;;;;;;;;;;15.60;99.90;;;;;;5076352;28;19988;-75
2022/09/22 14:18:35;;;;;;;;;;;15.50;99.90;;;;;;5080255;28;19923;-76
2022/09/22 14:21:00;;;;;;;;;;;15.50;99.90;;;;;;5083888;28;19908;-75
2022/09/22 14:23:27;;;;;;;;;;;15.50;99.90;;;;;;5074669;28;20452;-75
2022/09/22 14:25:57;;;;;;;;;;;15.50;99.90;;;;;;5072338;28;19909;-75
2022/09/22 14:28:25;;;;;;;;;;;15.70;99.90;;;;;;5074929;28;19912;-76
2022/09/22 14:30:50;;;;;;;;;;;15.80;99.90;;;;;;5075009;28;19959;-74
2022/09/22 14:33:34;;;;;;;;;;;16.00;99.90;;;;;;5075492;28;19989;-75
2022/09/22 14:36:01;;;;;;;;;;;16.00;99.90;;;;;;5073449;28;19912;-74
2022/09/22 14:38:29;;;;;;;;;;;16.10;99.90;;;;;;5073545;28;20278;-75
2022/09/22 14:40:55;;;;;;;;;;;16.20;99.90;;;;;;5073486;28;19995;-74
2022/09/22 14:43:26;;;;;;;;;;;16.50;99.90;;;;;;5071977;28;20376;-75